CheckWX is a tool to help pilots better visualize weather data.  It is not intended as a substitute for an official pre-flight weather briefing.

13:09:53 UTC

RJCB TAF
Tokachi-Obihiro Airport
Obihiro, Japan
TAF RJCB 261108Z 2612/2718 30005KT 9999 FEW040 BECMG 2621/2623 31022G32KT BECMG 2709/2712 31007KT

Mar-26@
12:00 UTC

Mar-26 @ 12:00 UTC

Mar-26@
21:00 UTC

Mar-26 @ 21:00 UTC

TAF RJCB 261108Z 2612/2718 30005KT 9999 FEW040
Wind
  • 300° at 5 KTS
Cloud Levels
  • Few at 4,000' AGL

Mar-26@
21:00 UTC

Mar-26 @ 21:00 UTC

Mar-27@
09:00 UTC

Mar-27 @ 09:00 UTC

BECMG 2621/2623 31022G32KT

Becoming

Becoming Conditions expected by Tue, Mar 26, 2019 @ 23:00 UTC

Wind
  • 310° at 22 KTS
  • {Gusting to 32 KTS
Cloud Levels
  • Few at 4,000' AGL

Mar-27@
09:00 UTC

Mar-27 @ 09:00 UTC

Mar-27@
18:00 UTC

Mar-27 @ 18:00 UTC

BECMG 2709/2712 31007KT

Becoming

Becoming Conditions expected by Wed, Mar 27, 2019 @ 12:00 UTC

Wind
  • 310° at 7 KTS
Cloud Levels
  • Few at 4,000' AGL